• Join FlightAware (Why Join?)
  • Login
  • US Flag 
10:42AM EDT


 

Airport Tracker/Info


-or-


 

Live Flight TrackerFlight Track Log ✈ CSZ9805 ✈ 22-Jul-2013 ✈ ZGSZ / SZX - ZSLQ / HYN

Flight Track Log - Related Links

Times and Time Zones

All times are in EDT time to prevent confusion due to time zone crossing. See the CSZ9805 flight status page for this flight to view local times or setup timezone preferences in your user account.

Time Position Orientation Groundspeed Altitude Reporting Facility
EDT Latitude Longitude Course Direction KTS MPH feet Rate Location/Type
07:14PM 23.3475 114.6606 48° Northeast  Level Estimated
07:15PM 23.4181 114.7460 48° Northeast  Level Estimated
07:16PM 23.4886 114.8314 48° Northeast  Level Estimated
07:17PM 23.5591 114.9169 48° Northeast  Level Estimated
07:18PM 23.6295 115.0025 48° Northeast  Level Estimated
07:19PM 23.6999 115.0881 48° Northeast  Level Estimated
07:20PM 23.7702 115.1739 48° Northeast  Level Estimated
07:21PM 23.8405 115.2598 48° Northeast  Level Estimated
07:22PM 23.9107 115.3457 48° Northeast  Level Estimated
07:23PM 23.9809 115.4318 48° Northeast  Level Estimated
07:24PM 24.0510 115.5179 48° Northeast  Level Estimated
07:25PM 24.1211 115.6042 48° Northeast  Level Estimated
07:26PM 24.1911 115.6905 48° Northeast  Level Estimated
07:27PM 24.2611 115.7769 48° Northeast  Level Estimated
07:28PM 24.3310 115.8635 48° Northeast  Level Estimated
07:29PM 24.4009 115.9501 48° Northeast  Level Estimated
07:30PM 24.4708 116.0368 48° Northeast  Level Estimated
07:31PM 24.5406 116.1236 49° Northeast  Level Estimated
07:32PM 24.6103 116.2105 49° Northeast  Level Estimated
07:33PM 24.6800 116.2975 49° Northeast  Level Estimated
07:34PM 24.7496 116.3847 49° Northeast  Level Estimated
07:35PM 24.8192 116.4719 49° Northeast  Level Estimated
07:36PM 24.8888 116.5592 49° Northeast  Level Estimated
07:37PM 24.9582 116.6466 49° Northeast  Level Estimated
07:38PM 25.0277 116.7341 49° Northeast  Level Estimated
07:39PM 25.0971 116.8217 49° Northeast  Level Estimated
07:40PM 25.1664 116.9094 49° Northeast  Level Estimated
07:41PM 25.2357 116.9972 49° Northeast  Level Estimated
07:42PM 25.3049 117.0851 49° Northeast  Level Estimated
07:43PM 25.3741 117.1731 49° Northeast  Level Estimated
07:44PM 25.4432 117.2612 49° Northeast  Level Estimated
07:45PM 25.5123 117.3494 49° Northeast  Level Estimated
07:46PM 25.5813 117.4377 49° Northeast  Level Estimated
07:47PM 25.6503 117.5261 49° Northeast  Level Estimated
07:48PM 25.7192 117.6146 49° Northeast  Level Estimated
07:49PM 25.7880 117.7032 49° Northeast  Level Estimated
07:50PM 25.8568 117.7919 49° Northeast  Level Estimated
07:51PM 25.9256 117.8807 49° Northeast  Level Estimated
07:52PM 25.9943 117.9696 49° Northeast  Level Estimated
07:53PM 26.0629 118.0586 49° Northeast  Level Estimated
07:54PM 26.1315 118.1478 49° Northeast  Level Estimated
07:55PM 26.2001 118.2370 49° Northeast  Level Estimated
07:56PM 26.2685 118.3263 49° Northeast  Level Estimated
07:57PM 26.3370 118.4157 50° Northeast  Level Estimated
07:58PM 26.4053 118.5053 50° Northeast  Level Estimated
07:59PM 26.4736 118.5949 50° Northeast  Level Estimated
08:00PM 26.5419 118.6847 50° Northeast  Level Estimated
08:01PM 26.6101 118.7746 50° Northeast  Level Estimated
08:02PM 26.6782 118.8645 50° Northeast  Level Estimated
08:03PM 26.7463 118.9546 50° Northeast  Level Estimated
08:04PM 26.8144 119.0448 50° Northeast  Level Estimated
08:05PM 26.8823 119.1351 50° Northeast  Level Estimated
08:06PM 26.9502 119.2255 50° Northeast  Level Estimated
08:07PM 27.0181 119.3160 50° Northeast  Level Estimated
08:08PM 27.0859 119.4066 50° Northeast  Level Estimated
08:09PM 27.1536 119.4974 50° Northeast  Level Estimated
08:10PM 27.2213 119.5882 50° Northeast  Level Estimated
08:11PM 27.2889 119.6792 50° Northeast  Level Estimated
08:12PM 27.3565 119.7702 50° Northeast  Level Estimated
08:13PM 27.4240 119.8614 50° Northeast  Level Estimated
08:14PM 27.4914 119.9527 50° Northeast  Level Estimated
08:15PM 27.5588 120.0441 50° Northeast  Level Estimated
08:16PM 27.6262 120.1356 50° Northeast  Level Estimated
08:17PM 27.6934 120.2272 50° Northeast  Level Estimated
08:18PM 27.7607 120.3190 50° Northeast  Level Estimated
08:19PM 27.8278 120.4108 50° Northeast  Level Estimated
08:20PM 27.8949 120.5028 50° Northeast  Level Estimated
08:21PM 27.9619 120.5948 50° Northeast  Level Estimated
08:22PM 28.0289 120.6870 51° Northeast  Level Estimated
08:23PM 28.0958 120.7794 51° Northeast  Level Estimated
08:24PM 28.1626 120.8718 51° Northeast  Level Estimated
08:25PM 28.2294 120.9643 51° Northeast  Level Estimated
08:26PM 28.2961 121.0570 51° Northeast  Level Estimated
08:27PM 28.3627 121.1497 51° Northeast  Level Estimated
08:28PM 28.4293 121.2426 51° Northeast  Level Estimated
08:29PM 28.4958 121.3356 51° Northeast  Level Estimated
08:30PM 28.5622 121.4286 51° Northeast  Level Estimated
08:31PM 28.5622 121.4286 24° Northeast  Level Estimated
08:32PM 28.5622 121.4286 24° Northeast  Level Estimated
08:33PM 28.5622 121.4286 24° Northeast  Level Estimated
08:34PM 28.5622 121.4286 24° Northeast  Level Estimated
08:35PM 28.5622 121.4286 24° Northeast  Level Estimated
08:36PM 28.5622 121.4286 24° Northeast  Level Estimated
08:37PM 28.5622 121.4286 24° Northeast  Level Estimated
08:38PM 28.5622 121.4286 24° Northeast  Level Estimated
08:39PM 28.5622 121.4286 24° Northeast  Level Estimated
08:40PM 28.5622 121.4286 24° Northeast  Level Estimated
08:41PM 28.5622 121.4286 24° Northeast  Level Estimated
08:42PM 28.5622 121.4286 24° Northeast  Level Estimated
08:43PM 28.5622 121.4286 24° Northeast  Level Estimated
08:44PM 28.5622 121.4286 24° Northeast  Level Estimated
08:45PM 28.5622 121.4286 24° Northeast  Level Estimated
08:46PM 28.5622 121.4286 24° Northeast  Level Estimated